sensor_id;sensor_type;location;lat;lon;timestamp;temperature;humidity
15203;DHT22;7702;51.046;5.184;2023-04-28T00:01:45;10.80;99.90
15203;DHT22;7702;51.046;5.184;2023-04-28T00:04:11;10.80;99.90
15203;DHT22;7702;51.046;5.184;2023-04-28T00:06:36;10.80;99.90
15203;DHT22;7702;51.046;5.184;2023-04-28T00:09:02;10.90;99.90
15203;DHT22;7702;51.046;5.184;2023-04-28T00:11:28;10.80;99.90
15203;DHT22;7702;51.046;5.184;2023-04-28T00:13:54;10.70;99.90
15203;DHT22;7702;51.046;5.184;2023-04-28T00:16:19;10.70;99.90
15203;DHT22;7702;51.046;5.184;2023-04-28T00:18:45;10.60;99.90
15203;DHT22;7702;51.046;5.184;2023-04-28T00:21:11;10.70;99.90
15203;DHT22;7702;51.046;5.184;2023-04-28T00:23:37;10.60;99.90
15203;DHT22;7702;51.046;5.184;2023-04-28T00:26:03;10.60;99.90
15203;DHT22;7702;51.046;5.184;2023-04-28T00:28:28;10.50;99.90
15203;DHT22;7702;51.046;5.184;2023-04-28T00:30:54;10.50;99.90
15203;DHT22;7702;51.046;5.184;2023-04-28T00:33:20;10.40;99.90
15203;DHT22;7702;51.046;5.184;2023-04-28T00:35:45;10.40;99.90
15203;DHT22;7702;51.046;5.184;2023-04-28T00:38:11;10.40;99.90
15203;DHT22;7702;51.046;5.184;2023-04-28T00:40:38;10.40;99.90
15203;DHT22;7702;51.046;5.184;2023-04-28T00:43:04;10.30;99.90
15203;DHT22;7702;51.046;5.184;2023-04-28T00:45:30;10.30;99.90
15203;DHT22;7702;51.046;5.184;2023-04-28T00:47:57;10.30;99.90
15203;DHT22;7702;51.046;5.184;2023-04-28T00:50:24;10.20;99.90
15203;DHT22;7702;51.046;5.184;2023-04-28T00:52:51;10.20;99.90
15203;DHT22;7702;51.046;5.184;2023-04-28T00:55:18;10.20;99.90
15203;DHT22;7702;51.046;5.184;2023-04-28T00:57:45;10.20;99.90
15203;DHT22;7702;51.046;5.184;2023-04-28T01:00:11;10.10;99.90
15203;DHT22;7702;51.046;5.184;2023-04-28T01:02:37;10.10;99.90
15203;DHT22;7702;51.046;5.184;2023-04-28T01:05:03;10.10;99.90
15203;DHT22;7702;51.046;5.184;2023-04-28T01:07:29;10.10;99.90
15203;DHT22;7702;51.046;5.184;2023-04-28T01:09:55;10.20;99.90
15203;DHT22;7702;51.046;5.184;2023-04-28T01:12:21;10.20;99.90
15203;DHT22;7702;51.046;5.184;2023-04-28T01:14:48;10.20;99.90
15203;DHT22;7702;51.046;5.184;2023-04-28T01:17:14;10.10;99.90
15203;DHT22;7702;51.046;5.184;2023-04-28T01:19:39;10.10;99.90
15203;DHT22;7702;51.046;5.184;2023-04-28T01:22:05;10.10;99.90
15203;DHT22;7702;51.046;5.184;2023-04-28T01:24:31;10.10;99.90
15203;DHT22;7702;51.046;5.184;2023-04-28T01:26:57;10.10;99.90
15203;DHT22;7702;51.046;5.184;2023-04-28T01:29:23;10.10;99.90
15203;DHT22;7702;51.046;5.184;2023-04-28T01:31:48;10.10;99.90
15203;DHT22;7702;51.046;5.184;2023-04-28T01:34:14;10.10;99.90
15203;DHT22;7702;51.046;5.184;2023-04-28T01:36:40;10.10;99.90
15203;DHT22;7702;51.046;5.184;2023-04-28T01:39:05;10.20;99.90
15203;DHT22;7702;51.046;5.184;2023-04-28T01:41:31;10.20;99.90
15203;DHT22;7702;51.046;5.184;2023-04-28T01:43:59;10.10;99.90
15203;DHT22;7702;51.046;5.184;2023-04-28T01:46:25;10.10;99.90
15203;DHT22;7702;51.046;5.184;2023-04-28T01:48:50;10.20;99.90
15203;DHT22;7702;51.046;5.184;2023-04-28T01:51:16;10.20;99.90
15203;DHT22;7702;51.046;5.184;2023-04-28T01:53:42;10.20;99.90
15203;DHT22;7702;51.046;5.184;2023-04-28T01:56:08;10.10;99.90
15203;DHT22;7702;51.046;5.184;2023-04-28T01:58:33;10.20;99.90
15203;DHT22;7702;51.046;5.184;2023-04-28T02:00:59;10.20;99.90
15203;DHT22;7702;51.046;5.184;2023-04-28T02:03:25;10.10;99.90
15203;DHT22;7702;51.046;5.184;2023-04-28T02:05:52;10.10;99.90
15203;DHT22;7702;51.046;5.184;2023-04-28T02:08:18;10.10;99.90
15203;DHT22;7702;51.046;5.184;2023-04-28T02:10:44;10.10;99.90
15203;DHT22;7702;51.046;5.184;2023-04-28T02:13:10;10.10;99.90
15203;DHT22;7702;51.046;5.184;2023-04-28T02:15:40;10.10;99.90
15203;DHT22;7702;51.046;5.184;2023-04-28T02:18:06;10.00;99.90
15203;DHT22;7702;51.046;5.184;2023-04-28T02:20:31;10.00;99.90
15203;DHT22;7702;51.046;5.184;2023-04-28T02:22:57;9.90;99.90
15203;DHT22;7702;51.046;5.184;2023-04-28T02:25:23;9.80;99.90
15203;DHT22;7702;51.046;5.184;2023-04-28T02:27:49;9.80;99.90
15203;DHT22;7702;51.046;5.184;2023-04-28T02:30:15;9.80;99.90
15203;DHT22;7702;51.046;5.184;2023-04-28T02:32:40;9.90;99.90
15203;DHT22;7702;51.046;5.184;2023-04-28T02:35:06;9.80;99.90
15203;DHT22;7702;51.046;5.184;2023-04-28T02:37:32;9.80;99.90
15203;DHT22;7702;51.046;5.184;2023-04-28T02:39:58;9.70;99.90
15203;DHT22;7702;51.046;5.184;2023-04-28T02:42:24;9.70;99.90
15203;DHT22;7702;51.046;5.184;2023-04-28T02:44:49;9.60;99.90
15203;DHT22;7702;51.046;5.184;2023-04-28T02:47:15;9.50;99.90
15203;DHT22;7702;51.046;5.184;2023-04-28T02:49:41;9.50;99.90
15203;DHT22;7702;51.046;5.184;2023-04-28T02:52:07;9.40;99.90
15203;DHT22;7702;51.046;5.184;2023-04-28T02:54:32;9.40;99.90
15203;DHT22;7702;51.046;5.184;2023-04-28T02:57:00;9.50;99.90
15203;DHT22;7702;51.046;5.184;2023-04-28T02:59:28;9.50;99.90
15203;DHT22;7702;51.046;5.184;2023-04-28T03:01:54;9.70;99.90
15203;DHT22;7702;51.046;5.184;2023-04-28T03:04:20;9.70;99.90
15203;DHT22;7702;51.046;5.184;2023-04-28T03:06:46;9.70;99.90
15203;DHT22;7702;51.046;5.184;2023-04-28T03:09:12;9.70;99.90
15203;DHT22;7702;51.046;5.184;2023-04-28T03:11:38;9.80;99.90
15203;DHT22;7702;51.046;5.184;2023-04-28T03:14:04;9.90;99.90
15203;DHT22;7702;51.046;5.184;2023-04-28T03:16:29;9.90;99.90
15203;DHT22;7702;51.046;5.184;2023-04-28T03:18:55;9.90;99.90
15203;DHT22;7702;51.046;5.184;2023-04-28T03:21:21;10.00;99.90
15203;DHT22;7702;51.046;5.184;2023-04-28T03:23:46;9.90;99.90
15203;DHT22;7702;51.046;5.184;2023-04-28T03:26:12;10.00;99.90
15203;DHT22;7702;51.046;5.184;2023-04-28T03:28:38;10.00;99.90
15203;DHT22;7702;51.046;5.184;2023-04-28T03:31:03;10.00;99.90
15203;DHT22;7702;51.046;5.184;2023-04-28T03:33:29;10.10;99.90
15203;DHT22;7702;51.046;5.184;2023-04-28T03:35:55;10.10;99.90
15203;DHT22;7702;51.046;5.184;2023-04-28T03:38:21;10.10;99.90
15203;DHT22;7702;51.046;5.184;2023-04-28T03:40:47;10.20;99.90
15203;DHT22;7702;51.046;5.184;2023-04-28T03:43:13;10.20;99.90
15203;DHT22;7702;51.046;5.184;2023-04-28T03:45:39;10.20;99.90
15203;DHT22;7702;51.046;5.184;2023-04-28T03:48:06;10.20;99.90
15203;DHT22;7702;51.046;5.184;2023-04-28T03:50:32;10.20;99.90
15203;DHT22;7702;51.046;5.184;2023-04-28T03:52:58;10.30;99.90
15203;DHT22;7702;51.046;5.184;2023-04-28T03:55:23;10.30;99.90
15203;DHT22;7702;51.046;5.184;2023-04-28T03:57:50;10.30;99.90
15203;DHT22;7702;51.046;5.184;2023-04-28T04:00:16;10.40;99.90
15203;DHT22;7702;51.046;5.184;2023-04-28T04:02:42;10.30;99.90
15203;DHT22;7702;51.046;5.184;2023-04-28T04:05:08;10.40;99.90
15203;DHT22;7702;51.046;5.184;2023-04-28T04:07:33;10.40;99.90
15203;DHT22;7702;51.046;5.184;2023-04-28T04:09:59;10.40;99.90
15203;DHT22;7702;51.046;5.184;2023-04-28T04:12:25;10.40;99.90
15203;DHT22;7702;51.046;5.184;2023-04-28T04:14:51;10.50;99.90
15203;DHT22;7702;51.046;5.184;2023-04-28T04:17:17;10.50;99.90
15203;DHT22;7702;51.046;5.184;2023-04-28T04:19:42;10.50;99.90
15203;DHT22;7702;51.046;5.184;2023-04-28T04:22:09;10.60;99.90
15203;DHT22;7702;51.046;5.184;2023-04-28T04:24:34;10.60;99.90
15203;DHT22;7702;51.046;5.184;2023-04-28T04:27:00;10.60;99.90
15203;DHT22;7702;51.046;5.184;2023-04-28T04:29:26;10.50;99.90
15203;DHT22;7702;51.046;5.184;2023-04-28T04:31:51;10.60;99.90
15203;DHT22;7702;51.046;5.184;2023-04-28T04:34:17;10.60;99.90
15203;DHT22;7702;51.046;5.184;2023-04-28T04:36:43;10.70;99.90
15203;DHT22;7702;51.046;5.184;2023-04-28T04:39:08;10.70;99.90
15203;DHT22;7702;51.046;5.184;2023-04-28T04:41:34;10.70;99.90
15203;DHT22;7702;51.046;5.184;2023-04-28T04:44:00;10.70;99.90
15203;DHT22;7702;51.046;5.184;2023-04-28T04:46:26;10.80;99.90
15203;DHT22;7702;51.046;5.184;2023-04-28T04:48:51;10.80;99.90
15203;DHT22;7702;51.046;5.184;2023-04-28T04:51:17;10.90;99.90
15203;DHT22;7702;51.046;5.184;2023-04-28T04:53:43;10.90;99.90
15203;DHT22;7702;51.046;5.184;2023-04-28T04:56:09;11.00;99.90
15203;DHT22;7702;51.046;5.184;2023-04-28T04:58:35;11.00;99.90
15203;DHT22;7702;51.046;5.184;2023-04-28T05:01:01;11.00;99.90
15203;DHT22;7702;51.046;5.184;2023-04-28T05:03:28;11.00;99.90
15203;DHT22;7702;51.046;5.184;2023-04-28T05:05:54;11.00;99.90
15203;DHT22;7702;51.046;5.184;2023-04-28T05:08:20;11.10;99.90
15203;DHT22;7702;51.046;5.184;2023-04-28T05:10:45;11.10;99.90
15203;DHT22;7702;51.046;5.184;2023-04-28T05:13:11;11.10;99.90
15203;DHT22;7702;51.046;5.184;2023-04-28T05:15:37;11.10;99.90
15203;DHT22;7702;51.046;5.184;2023-04-28T05:18:03;11.10;99.90
15203;DHT22;7702;51.046;5.184;2023-04-28T05:20:34;11.10;99.90
15203;DHT22;7702;51.046;5.184;2023-04-28T05:22:59;11.20;99.90
15203;DHT22;7702;51.046;5.184;2023-04-28T05:25:25;11.30;99.90
15203;DHT22;7702;51.046;5.184;2023-04-28T05:27:51;11.30;99.90
15203;DHT22;7702;51.046;5.184;2023-04-28T05:30:16;11.40;99.90
15203;DHT22;7702;51.046;5.184;2023-04-28T05:32:42;11.40;99.90
15203;DHT22;7702;51.046;5.184;2023-04-28T05:35:08;11.40;99.90
15203;DHT22;7702;51.046;5.184;2023-04-28T05:37:34;11.50;99.90
15203;DHT22;7702;51.046;5.184;2023-04-28T05:40:00;11.50;99.90
15203;DHT22;7702;51.046;5.184;2023-04-28T05:42:26;11.50;99.90
15203;DHT22;7702;51.046;5.184;2023-04-28T05:44:51;11.50;99.90
15203;DHT22;7702;51.046;5.184;2023-04-28T05:47:17;11.60;99.90
15203;DHT22;7702;51.046;5.184;2023-04-28T05:49:43;11.60;99.90
15203;DHT22;7702;51.046;5.184;2023-04-28T05:52:08;11.60;99.90
15203;DHT22;7702;51.046;5.184;2023-04-28T05:54:34;11.60;99.90
15203;DHT22;7702;51.046;5.184;2023-04-28T05:57:00;11.50;99.90
15203;DHT22;7702;51.046;5.184;2023-04-28T05:59:26;11.50;99.90
15203;DHT22;7702;51.046;5.184;2023-04-28T06:01:53;11.50;99.90
15203;DHT22;7702;51.046;5.184;2023-04-28T06:04:18;11.60;99.90
15203;DHT22;7702;51.046;5.184;2023-04-28T06:06:44;11.60;99.90
15203;DHT22;7702;51.046;5.184;2023-04-28T06:09:10;11.70;99.90
15203;DHT22;7702;51.046;5.184;2023-04-28T06:11:35;11.70;99.90
15203;DHT22;7702;51.046;5.184;2023-04-28T06:14:01;11.70;99.90
15203;DHT22;7702;51.046;5.184;2023-04-28T06:16:27;11.80;99.90
15203;DHT22;7702;51.046;5.184;2023-04-28T06:18:53;11.90;99.90
15203;DHT22;7702;51.046;5.184;2023-04-28T06:21:19;11.90;99.90
15203;DHT22;7702;51.046;5.184;2023-04-28T06:23:46;12.00;99.90
15203;DHT22;7702;51.046;5.184;2023-04-28T06:26:12;12.10;99.90
15203;DHT22;7702;51.046;5.184;2023-04-28T06:28:37;12.10;99.90
15203;DHT22;7702;51.046;5.184;2023-04-28T06:31:03;12.20;99.90
15203;DHT22;7702;51.046;5.184;2023-04-28T06:33:29;12.30;99.90
15203;DHT22;7702;51.046;5.184;2023-04-28T06:35:55;12.40;99.90
15203;DHT22;7702;51.046;5.184;2023-04-28T06:38:21;12.50;99.90
15203;DHT22;7702;51.046;5.184;2023-04-28T06:40:46;12.60;99.90
15203;DHT22;7702;51.046;5.184;2023-04-28T06:43:12;12.60;99.90
15203;DHT22;7702;51.046;5.184;2023-04-28T06:45:38;12.70;99.90
15203;DHT22;7702;51.046;5.184;2023-04-28T06:48:04;12.70;99.90
15203;DHT22;7702;51.046;5.184;2023-04-28T06:50:30;12.60;99.90
15203;DHT22;7702;51.046;5.184;2023-04-28T06:52:56;12.50;99.90
15203;DHT22;7702;51.046;5.184;2023-04-28T06:55:23;12.50;99.90
15203;DHT22;7702;51.046;5.184;2023-04-28T06:57:49;12.50;99.90
15203;DHT22;7702;51.046;5.184;2023-04-28T07:00:15;12.50;99.90
15203;DHT22;7702;51.046;5.184;2023-04-28T07:02:41;12.50;99.90
15203;DHT22;7702;51.046;5.184;2023-04-28T07:05:07;12.40;99.90
15203;DHT22;7702;51.046;5.184;2023-04-28T07:07:34;12.50;99.90
15203;DHT22;7702;51.046;5.184;2023-04-28T07:09:59;12.50;99.90
15203;DHT22;7702;51.046;5.184;2023-04-28T07:12:26;12.60;99.90
15203;DHT22;7702;51.046;5.184;2023-04-28T07:14:52;12.60;99.90
15203;DHT22;7702;51.046;5.184;2023-04-28T07:17:18;12.50;99.90
15203;DHT22;7702;51.046;5.184;2023-04-28T07:19:44;12.60;99.90
15203;DHT22;7702;51.046;5.184;2023-04-28T07:22:09;12.60;99.90
15203;DHT22;7702;51.046;5.184;2023-04-28T07:24:35;12.60;99.90
15203;DHT22;7702;51.046;5.184;2023-04-28T07:27:01;12.80;99.90
15203;DHT22;7702;51.046;5.184;2023-04-28T07:29:28;12.80;99.90
15203;DHT22;7702;51.046;5.184;2023-04-28T07:32:00;12.90;99.90
15203;DHT22;7702;51.046;5.184;2023-04-28T07:34:26;12.90;99.90
15203;DHT22;7702;51.046;5.184;2023-04-28T07:36:52;12.80;99.90
15203;DHT22;7702;51.046;5.184;2023-04-28T07:39:18;12.60;99.90
15203;DHT22;7702;51.046;5.184;2023-04-28T07:41:44;12.60;99.90
15203;DHT22;7702;51.046;5.184;2023-04-28T07:44:10;12.70;99.90
15203;DHT22;7702;51.046;5.184;2023-04-28T07:46:36;12.80;99.90
15203;DHT22;7702;51.046;5.184;2023-04-28T07:49:02;13.00;99.90
15203;DHT22;7702;51.046;5.184;2023-04-28T07:51:29;13.20;99.90
15203;DHT22;7702;51.046;5.184;2023-04-28T07:53:55;13.30;99.90
15203;DHT22;7702;51.046;5.184;2023-04-28T07:56:21;13.40;99.90
15203;DHT22;7702;51.046;5.184;2023-04-28T07:58:47;13.50;99.90
15203;DHT22;7702;51.046;5.184;2023-04-28T08:01:13;13.60;99.90
15203;DHT22;7702;51.046;5.184;2023-04-28T08:03:38;13.80;99.90
15203;DHT22;7702;51.046;5.184;2023-04-28T08:06:04;13.80;99.90
15203;DHT22;7702;51.046;5.184;2023-04-28T08:08:30;13.80;99.90
15203;DHT22;7702;51.046;5.184;2023-04-28T08:10:56;13.80;99.90
15203;DHT22;7702;51.046;5.184;2023-04-28T08:13:23;13.90;99.90
15203;DHT22;7702;51.046;5.184;2023-04-28T08:15:49;14.00;99.90
15203;DHT22;7702;51.046;5.184;2023-04-28T08:18:15;14.10;99.90
15203;DHT22;7702;51.046;5.184;2023-04-28T08:20:41;14.20;99.90
15203;DHT22;7702;51.046;5.184;2023-04-28T08:23:07;14.10;99.90
15203;DHT22;7702;51.046;5.184;2023-04-28T08:25:33;14.20;99.90
15203;DHT22;7702;51.046;5.184;2023-04-28T08:27:59;14.30;99.90
15203;DHT22;7702;51.046;5.184;2023-04-28T08:30:25;14.40;99.90
15203;DHT22;7702;51.046;5.184;2023-04-28T08:32:51;14.50;99.90
15203;DHT22;7702;51.046;5.184;2023-04-28T08:35:16;14.60;99.90
15203;DHT22;7702;51.046;5.184;2023-04-28T08:37:43;14.70;99.90
15203;DHT22;7702;51.046;5.184;2023-04-28T08:40:10;15.00;99.90
15203;DHT22;7702;51.046;5.184;2023-04-28T08:42:36;15.30;99.90
15203;DHT22;7702;51.046;5.184;2023-04-28T08:45:03;15.90;99.90
15203;DHT22;7702;51.046;5.184;2023-04-28T08:47:37;16.50;99.90
15203;DHT22;7702;51.046;5.184;2023-04-28T08:50:05;16.90;99.90
15203;DHT22;7702;51.046;5.184;2023-04-28T08:52:32;17.40;99.90
15203;DHT22;7702;51.046;5.184;2023-04-28T08:54:59;17.30;99.90
15203;DHT22;7702;51.046;5.184;2023-04-28T08:57:27;17.00;99.90
15203;DHT22;7702;51.046;5.184;2023-04-28T08:59:55;16.90;99.90
15203;DHT22;7702;51.046;5.184;2023-04-28T09:02:21;17.00;99.90
15203;DHT22;7702;51.046;5.184;2023-04-28T09:04:47;17.00;99.90
15203;DHT22;7702;51.046;5.184;2023-04-28T09:07:13;17.00;99.90
15203;DHT22;7702;51.046;5.184;2023-04-28T09:09:40;16.90;99.90
15203;DHT22;7702;51.046;5.184;2023-04-28T09:12:06;16.70;99.90
15203;DHT22;7702;51.046;5.184;2023-04-28T09:14:34;16.60;99.90
15203;DHT22;7702;51.046;5.184;2023-04-28T09:17:01;16.60;99.90
15203;DHT22;7702;51.046;5.184;2023-04-28T09:19:34;16.40;99.90
15203;DHT22;7702;51.046;5.184;2023-04-28T09:22:01;16.30;99.90
15203;DHT22;7702;51.046;5.184;2023-04-28T09:24:40;16.40;99.90
15203;DHT22;7702;51.046;5.184;2023-04-28T09:27:10;16.60;99.90
15203;DHT22;7702;51.046;5.184;2023-04-28T09:29:51;16.80;99.90
15203;DHT22;7702;51.046;5.184;2023-04-28T09:32:19;16.80;99.90
15203;DHT22;7702;51.046;5.184;2023-04-28T09:34:48;17.00;99.90
15203;DHT22;7702;51.046;5.184;2023-04-28T09:37:21;17.00;99.90
15203;DHT22;7702;51.046;5.184;2023-04-28T09:39:49;17.20;99.90
15203;DHT22;7702;51.046;5.184;2023-04-28T09:45:04;17.20;99.90
15203;DHT22;7702;51.046;5.184;2023-04-28T09:47:30;17.20;99.90
15203;DHT22;7702;51.046;5.184;2023-04-28T09:50:01;17.10;99.90
15203;DHT22;7702;51.046;5.184;2023-04-28T09:52:27;17.30;99.90
15203;DHT22;7702;51.046;5.184;2023-04-28T09:54:54;17.40;99.90
15203;DHT22;7702;51.046;5.184;2023-04-28T09:57:21;17.30;99.90
15203;DHT22;7702;51.046;5.184;2023-04-28T09:59:49;17.40;99.90
15203;DHT22;7702;51.046;5.184;2023-04-28T10:02:16;17.60;99.90
15203;DHT22;7702;51.046;5.184;2023-04-28T10:04:47;17.60;99.90
15203;DHT22;7702;51.046;5.184;2023-04-28T10:07:14;17.40;99.90
15203;DHT22;7702;51.046;5.184;2023-04-28T10:09:42;17.30;99.90
15203;DHT22;7702;51.046;5.184;2023-04-28T10:12:18;17.10;99.90
15203;DHT22;7702;51.046;5.184;2023-04-28T10:14:45;17.00;99.90
15203;DHT22;7702;51.046;5.184;2023-04-28T10:17:15;17.00;99.90
15203;DHT22;7702;51.046;5.184;2023-04-28T10:19:43;17.10;99.90
15203;DHT22;7702;51.046;5.184;2023-04-28T10:27:45;17.20;99.90
15203;DHT22;7702;51.046;5.184;2023-04-28T10:30:12;17.30;99.90
15203;DHT22;7702;51.046;5.184;2023-04-28T10:32:38;17.50;99.90
15203;DHT22;7702;51.046;5.184;2023-04-28T10:38:04;18.00;99.90
15203;DHT22;7702;51.046;5.184;2023-04-28T10:40:33;18.20;99.90
15203;DHT22;7702;51.046;5.184;2023-04-28T10:43:00;18.40;99.90
15203;DHT22;7702;51.046;5.184;2023-04-28T10:48:19;19.30;99.90
15203;DHT22;7702;51.046;5.184;2023-04-28T10:58:35;19.50;99.90
15203;DHT22;7702;51.046;5.184;2023-04-28T11:03:58;18.90;99.90
15203;DHT22;7702;51.046;5.184;2023-04-28T11:06:44;18.50;99.90
15203;DHT22;7702;51.046;5.184;2023-04-28T11:11:37;18.10;99.90
15203;DHT22;7702;51.046;5.184;2023-04-28T11:19:24;18.20;99.90
15203;DHT22;7702;51.046;5.184;2023-04-28T11:21:52;18.00;99.90
15203;DHT22;7702;51.046;5.184;2023-04-28T11:24:18;18.10;99.90
15203;DHT22;7702;51.046;5.184;2023-04-28T11:26:44;18.30;99.90
15203;DHT22;7702;51.046;5.184;2023-04-28T11:29:10;18.50;99.90
15203;DHT22;7702;51.046;5.184;2023-04-28T11:31:37;18.50;99.90
15203;DHT22;7702;51.046;5.184;2023-04-28T11:34:06;18.70;99.90
15203;DHT22;7702;51.046;5.184;2023-04-28T11:36:34;18.60;99.90
15203;DHT22;7702;51.046;5.184;2023-04-28T11:39:04;18.60;99.90
15203;DHT22;7702;51.046;5.184;2023-04-28T11:41:33;18.50;99.90
15203;DHT22;7702;51.046;5.184;2023-04-28T11:43:59;18.50;99.90
15203;DHT22;7702;51.046;5.184;2023-04-28T11:46:25;18.80;99.90
15203;DHT22;7702;51.046;5.184;2023-04-28T11:49:02;18.70;99.90
15203;DHT22;7702;51.046;5.184;2023-04-28T11:51:36;18.60;99.90
15203;DHT22;7702;51.046;5.184;2023-04-28T11:54:04;18.70;99.90
15203;DHT22;7702;51.046;5.184;2023-04-28T11:56:36;18.70;99.90
15203;DHT22;7702;51.046;5.184;2023-04-28T11:59:04;18.60;99.90
15203;DHT22;7702;51.046;5.184;2023-04-28T12:01:31;18.50;99.90
15203;DHT22;7702;51.046;5.184;2023-04-28T12:03:57;18.50;99.90
15203;DHT22;7702;51.046;5.184;2023-04-28T12:06:23;18.50;99.90
15203;DHT22;7702;51.046;5.184;2023-04-28T12:08:49;18.50;99.90
15203;DHT22;7702;51.046;5.184;2023-04-28T12:11:17;18.80;99.90
15203;DHT22;7702;51.046;5.184;2023-04-28T12:13:43;18.90;99.90
15203;DHT22;7702;51.046;5.184;2023-04-28T12:16:37;18.90;99.90
15203;DHT22;7702;51.046;5.184;2023-04-28T12:19:03;18.60;99.90
15203;DHT22;7702;51.046;5.184;2023-04-28T12:21:32;18.60;99.90
15203;DHT22;7702;51.046;5.184;2023-04-28T12:23:58;18.70;99.90
15203;DHT22;7702;51.046;5.184;2023-04-28T12:26:24;18.60;99.90
15203;DHT22;7702;51.046;5.184;2023-04-28T12:28:50;18.60;99.90
15203;DHT22;7702;51.046;5.184;2023-04-28T12:31:16;18.40;99.90
15203;DHT22;7702;51.046;5.184;2023-04-28T12:33:41;18.30;99.90
15203;DHT22;7702;51.046;5.184;2023-04-28T12:36:09;18.20;99.90
15203;DHT22;7702;51.046;5.184;2023-04-28T12:38:35;18.10;99.90
15203;DHT22;7702;51.046;5.184;2023-04-28T12:41:02;18.00;99.90
15203;DHT22;7702;51.046;5.184;2023-04-28T12:43:28;17.80;99.90
15203;DHT22;7702;51.046;5.184;2023-04-28T12:45:54;17.70;99.90
15203;DHT22;7702;51.046;5.184;2023-04-28T12:48:21;17.60;99.90
15203;DHT22;7702;51.046;5.184;2023-04-28T12:50:49;17.70;99.90
15203;DHT22;7702;51.046;5.184;2023-04-28T12:53:15;17.50;99.90
15203;DHT22;7702;51.046;5.184;2023-04-28T12:55:41;17.30;99.90
15203;DHT22;7702;51.046;5.184;2023-04-28T12:58:07;17.30;99.90
15203;DHT22;7702;51.046;5.184;2023-04-28T13:00:33;16.90;99.90
15203;DHT22;7702;51.046;5.184;2023-04-28T13:02:59;16.70;99.90
15203;DHT22;7702;51.046;5.184;2023-04-28T13:05:25;16.40;99.90
15203;DHT22;7702;51.046;5.184;2023-04-28T13:07:51;16.30;99.90
15203;DHT22;7702;51.046;5.184;2023-04-28T13:10:17;16.40;99.90
15203;DHT22;7702;51.046;5.184;2023-04-28T13:12:45;16.50;99.90
15203;DHT22;7702;51.046;5.184;2023-04-28T13:15:11;16.30;99.90
15203;DHT22;7702;51.046;5.184;2023-04-28T13:17:37;16.40;99.90
15203;DHT22;7702;51.046;5.184;2023-04-28T13:20:03;16.40;99.90
15203;DHT22;7702;51.046;5.184;2023-04-28T13:22:29;16.30;99.90
15203;DHT22;7702;51.046;5.184;2023-04-28T13:24:55;16.00;99.90
15203;DHT22;7702;51.046;5.184;2023-04-28T13:27:21;16.00;99.90
15203;DHT22;7702;51.046;5.184;2023-04-28T13:29:47;16.00;99.90
15203;DHT22;7702;51.046;5.184;2023-04-28T13:32:12;15.90;99.90
15203;DHT22;7702;51.046;5.184;2023-04-28T13:34:38;15.90;99.90
15203;DHT22;7702;51.046;5.184;2023-04-28T13:37:04;15.90;99.90
15203;DHT22;7702;51.046;5.184;2023-04-28T13:39:30;15.70;99.90
15203;DHT22;7702;51.046;5.184;2023-04-28T13:41:57;15.60;99.90
15203;DHT22;7702;51.046;5.184;2023-04-28T13:44:23;15.70;99.90
15203;DHT22;7702;51.046;5.184;2023-04-28T13:46:48;15.90;99.90
15203;DHT22;7702;51.046;5.184;2023-04-28T13:49:14;15.80;99.90
15203;DHT22;7702;51.046;5.184;2023-04-28T13:51:40;15.90;99.90
15203;DHT22;7702;51.046;5.184;2023-04-28T13:54:06;15.90;99.90
15203;DHT22;7702;51.046;5.184;2023-04-28T13:56:36;15.80;99.90
15203;DHT22;7702;51.046;5.184;2023-04-28T13:59:01;15.80;99.90
15203;DHT22;7702;51.046;5.184;2023-04-28T14:01:28;15.80;99.90
15203;DHT22;7702;51.046;5.184;2023-04-28T14:03:53;15.80;99.90
15203;DHT22;7702;51.046;5.184;2023-04-28T14:06:19;15.80;99.90
15203;DHT22;7702;51.046;5.184;2023-04-28T14:08:45;15.80;99.90
15203;DHT22;7702;51.046;5.184;2023-04-28T14:11:12;15.80;99.90
15203;DHT22;7702;51.046;5.184;2023-04-28T14:13:38;15.90;99.90
15203;DHT22;7702;51.046;5.184;2023-04-28T14:16:03;16.00;99.90
15203;DHT22;7702;51.046;5.184;2023-04-28T14:18:29;15.90;99.90
15203;DHT22;7702;51.046;5.184;2023-04-28T14:20:57;16.00;99.90
15203;DHT22;7702;51.046;5.184;2023-04-28T14:23:23;16.00;99.90
15203;DHT22;7702;51.046;5.184;2023-04-28T14:25:49;15.90;99.90
15203;DHT22;7702;51.046;5.184;2023-04-28T14:28:19;16.00;99.90
15203;DHT22;7702;51.046;5.184;2023-04-28T14:30:45;16.00;99.90
15203;DHT22;7702;51.046;5.184;2023-04-28T14:33:11;15.90;99.90
15203;DHT22;7702;51.046;5.184;2023-04-28T14:35:37;15.80;99.90
15203;DHT22;7702;51.046;5.184;2023-04-28T14:38:03;15.60;99.90
15203;DHT22;7702;51.046;5.184;2023-04-28T14:40:28;15.50;99.90
15203;DHT22;7702;51.046;5.184;2023-04-28T14:42:54;15.70;99.90
15203;DHT22;7702;51.046;5.184;2023-04-28T14:45:20;15.80;99.90
15203;DHT22;7702;51.046;5.184;2023-04-28T14:47:46;15.90;99.90
15203;DHT22;7702;51.046;5.184;2023-04-28T14:50:12;16.00;99.90
15203;DHT22;7702;51.046;5.184;2023-04-28T14:52:37;16.10;99.90
15203;DHT22;7702;51.046;5.184;2023-04-28T14:55:04;16.20;99.90
15203;DHT22;7702;51.046;5.184;2023-04-28T14:57:29;16.50;99.90
15203;DHT22;7702;51.046;5.184;2023-04-28T14:59:55;16.50;99.90
15203;DHT22;7702;51.046;5.184;2023-04-28T15:02:22;16.30;99.90
15203;DHT22;7702;51.046;5.184;2023-04-28T15:04:53;16.40;99.90
15203;DHT22;7702;51.046;5.184;2023-04-28T15:07:19;16.40;99.90
15203;DHT22;7702;51.046;5.184;2023-04-28T15:09:46;16.20;99.90
15203;DHT22;7702;51.046;5.184;2023-04-28T15:12:15;16.00;99.90
15203;DHT22;7702;51.046;5.184;2023-04-28T15:14:42;16.10;99.90
15203;DHT22;7702;51.046;5.184;2023-04-28T15:17:08;16.10;99.90
15203;DHT22;7702;51.046;5.184;2023-04-28T15:19:34;15.90;99.90
15203;DHT22;7702;51.046;5.184;2023-04-28T15:22:00;15.90;99.90
15203;DHT22;7702;51.046;5.184;2023-04-28T15:24:26;15.90;99.90
15203;DHT22;7702;51.046;5.184;2023-04-28T15:26:52;16.10;99.90
15203;DHT22;7702;51.046;5.184;2023-04-28T15:29:18;16.10;99.90
15203;DHT22;7702;51.046;5.184;2023-04-28T15:31:44;16.10;99.90
15203;DHT22;7702;51.046;5.184;2023-04-28T15:34:10;16.00;99.90
15203;DHT22;7702;51.046;5.184;2023-04-28T15:36:37;16.10;99.90
15203;DHT22;7702;51.046;5.184;2023-04-28T15:39:06;16.30;99.90
15203;DHT22;7702;51.046;5.184;2023-04-28T15:41:33;16.30;99.90
15203;DHT22;7702;51.046;5.184;2023-04-28T15:43:59;16.20;99.90
15203;DHT22;7702;51.046;5.184;2023-04-28T15:46:28;16.20;99.90
15203;DHT22;7702;51.046;5.184;2023-04-28T15:48:54;16.20;99.90
15203;DHT22;7702;51.046;5.184;2023-04-28T15:51:21;16.20;99.90
15203;DHT22;7702;51.046;5.184;2023-04-28T15:53:46;16.10;99.90
15203;DHT22;7702;51.046;5.184;2023-04-28T15:56:15;16.20;99.90
15203;DHT22;7702;51.046;5.184;2023-04-28T15:58:41;16.40;99.90
15203;DHT22;7702;51.046;5.184;2023-04-28T16:01:08;16.50;99.90
15203;DHT22;7702;51.046;5.184;2023-04-28T16:03:33;16.50;99.90
15203;DHT22;7702;51.046;5.184;2023-04-28T16:05:59;16.50;99.90
15203;DHT22;7702;51.046;5.184;2023-04-28T16:08:25;16.50;99.90
15203;DHT22;7702;51.046;5.184;2023-04-28T16:10:51;16.40;99.90
15203;DHT22;7702;51.046;5.184;2023-04-28T16:13:18;16.40;99.90
15203;DHT22;7702;51.046;5.184;2023-04-28T16:15:44;16.40;99.90